createdAt,value
2018-11-05T00:00:27.245Z,27.63
2018-11-05T00:02:56.254Z,17.43
2018-11-05T00:05:25.183Z,14.93
2018-11-05T00:07:54.178Z,19.00
2018-11-05T00:10:23.211Z,12.87
2018-11-05T00:12:53.170Z,18.97
2018-11-05T00:15:22.093Z,12.37
2018-11-05T00:17:50.975Z,11.40
2018-11-05T00:20:19.918Z,14.90
2018-11-05T00:22:48.807Z,11.33
2018-11-05T00:25:17.769Z,11.83
2018-11-05T00:27:46.918Z,13.60
2018-11-05T00:30:17.065Z,11.90
2018-11-05T00:32:46.240Z,11.13
2018-11-05T00:35:15.636Z,13.57
2018-11-05T00:37:44.483Z,12.27
2018-11-05T00:40:14.463Z,13.20
2018-11-05T00:42:43.976Z,10.63
2018-11-05T00:45:13.266Z,10.50
2018-11-05T00:47:43.000Z,16.80
2018-11-05T00:50:13.484Z,12.53
2018-11-05T00:52:42.388Z,12.23
2018-11-05T00:55:12.105Z,11.93
2018-11-05T00:57:41.004Z,12.80
2018-11-05T01:00:11.456Z,12.13
2018-11-05T01:02:41.015Z,10.30
2018-11-05T01:05:11.565Z,15.77
2018-11-05T01:07:40.952Z,11.23
2018-11-05T01:10:10.978Z,11.97
2018-11-05T01:12:40.981Z,11.53
2018-11-05T01:15:12.193Z,11.90
2018-11-05T01:17:41.112Z,11.77
2018-11-05T01:20:11.675Z,11.13
2018-11-05T01:22:40.519Z,14.37
2018-11-05T01:25:09.461Z,11.70
2018-11-05T01:27:39.998Z,10.03
2018-11-05T01:30:13.596Z,10.63
2018-11-05T01:32:42.487Z,10.87
2018-11-05T01:35:12.584Z,12.53
2018-11-05T01:37:41.689Z,13.23
2018-11-05T01:40:13.006Z,13.43
2018-11-05T01:42:43.366Z,10.33
2018-11-05T01:45:13.393Z,10.27
2018-11-05T01:47:42.898Z,14.77
2018-11-05T01:50:13.581Z,12.07
2018-11-05T01:52:43.942Z,11.53
2018-11-05T01:55:13.011Z,15.37
2018-11-05T01:57:42.105Z,12.90
2018-11-05T02:00:13.767Z,11.87
2018-11-05T02:02:43.068Z,9.80
2018-11-05T02:05:12.219Z,14.27
2018-11-05T02:07:42.294Z,12.10
2018-11-05T02:10:16.060Z,13.93
2018-11-05T02:12:44.884Z,15.73
2018-11-05T02:15:14.233Z,12.70
2018-11-05T02:17:44.467Z,11.73
2018-11-05T02:20:14.306Z,12.20
2018-11-05T02:22:43.189Z,11.77
2018-11-05T02:25:12.810Z,12.57
2018-11-05T02:27:41.868Z,12.53
2018-11-05T02:30:13.008Z,14.60
2018-11-05T02:32:41.883Z,12.37
2018-11-05T02:35:12.374Z,12.90
2018-11-05T02:37:43.543Z,12.13
2018-11-05T02:40:14.872Z,12.23
2018-11-05T02:42:44.323Z,10.10
2018-11-05T02:45:14.488Z,13.23
2018-11-05T02:47:43.468Z,11.37
2018-11-05T02:50:13.140Z,13.17
2018-11-05T02:52:43.023Z,13.60
2018-11-05T02:55:11.992Z,12.40
2018-11-05T02:57:40.889Z,12.77
2018-11-05T03:00:13.281Z,12.03
2018-11-05T03:02:42.582Z,12.67
2018-11-05T03:05:15.878Z,16.17
2018-11-05T03:07:45.379Z,14.70
2018-11-05T03:10:15.677Z,15.90
2018-11-05T03:12:45.388Z,12.43
2018-11-05T03:15:15.500Z,12.30
2018-11-05T03:17:44.404Z,11.77
2018-11-05T03:20:14.143Z,12.07
2018-11-05T03:22:43.609Z,11.20
2018-11-05T03:25:12.510Z,11.63
2018-11-05T03:27:41.804Z,11.97
2018-11-05T03:30:15.632Z,13.37
2018-11-05T03:32:44.500Z,12.20
2018-11-05T03:35:14.005Z,12.27
2018-11-05T03:37:43.712Z,11.90
2018-11-05T03:40:13.103Z,12.17
2018-11-05T03:42:42.528Z,11.10
2018-11-05T03:45:12.933Z,12.83
2018-11-05T03:47:41.823Z,14.17
2018-11-05T03:50:12.660Z,12.00
2018-11-05T03:52:41.873Z,14.33
2018-11-05T03:55:10.693Z,13.27
2018-11-05T03:57:39.541Z,13.13
2018-11-05T04:00:09.878Z,12.57
2018-11-05T04:02:38.761Z,11.67
2018-11-05T04:05:07.797Z,12.67
2018-11-05T04:07:36.973Z,14.33
2018-11-05T04:10:06.803Z,14.80
2018-11-05T04:12:35.877Z,12.70
2018-11-05T04:15:04.812Z,13.93
2018-11-05T04:17:33.764Z,12.33
2018-11-05T04:20:02.628Z,13.03
2018-11-05T04:22:31.488Z,11.77
2018-11-05T04:25:00.400Z,16.90
2018-11-05T04:27:29.294Z,15.13
2018-11-05T04:29:58.093Z,12.33
2018-11-05T04:32:26.949Z,11.97
2018-11-05T04:34:55.818Z,15.23
2018-11-05T04:37:24.808Z,12.60
2018-11-05T04:39:53.756Z,13.20
2018-11-05T04:42:22.656Z,15.43
2018-11-05T04:44:51.613Z,13.70
2018-11-05T04:47:20.496Z,14.10
2018-11-05T04:49:49.361Z,14.90
2018-11-05T04:52:18.220Z,13.17
2018-11-05T04:54:47.091Z,15.47
2018-11-05T04:57:15.955Z,14.90
2018-11-05T04:59:44.821Z,16.77
2018-11-05T05:02:13.722Z,14.60
2018-11-05T05:04:42.960Z,17.17
2018-11-05T05:07:11.836Z,15.33
2018-11-05T05:09:40.681Z,14.77
2018-11-05T05:12:09.530Z,14.03
2018-11-05T05:14:38.392Z,16.23
2018-11-05T05:17:07.338Z,15.90
2018-11-05T05:19:36.221Z,16.67
2018-11-05T05:22:05.308Z,18.23
2018-11-05T05:24:34.160Z,19.03
2018-11-05T05:27:03.770Z,16.70
2018-11-05T05:29:32.661Z,20.80
2018-11-05T05:32:01.571Z,19.93
2018-11-05T05:34:30.427Z,16.83
2018-11-05T05:36:59.342Z,14.93
2018-11-05T05:39:28.294Z,14.67
2018-11-05T05:41:57.190Z,17.33
2018-11-05T05:44:26.010Z,16.03
2018-11-05T05:46:54.844Z,17.53
2018-11-05T05:49:23.745Z,19.77
2018-11-05T05:51:52.592Z,16.37
2018-11-05T05:54:21.508Z,14.53
2018-11-05T05:56:50.348Z,14.93
2018-11-05T05:59:19.262Z,14.30
2018-11-05T06:01:48.155Z,20.93
2018-11-05T06:04:17.066Z,18.50
2018-11-05T06:06:46.006Z,15.57
2018-11-05T06:09:15.183Z,17.20
2018-11-05T06:11:44.040Z,15.43
2018-11-05T06:14:12.917Z,15.87
2018-11-05T06:16:42.534Z,19.93
2018-11-05T06:19:11.377Z,16.20
2018-11-05T06:21:40.336Z,18.43
2018-11-05T06:24:09.163Z,16.33
2018-11-05T06:26:37.996Z,17.43
2018-11-05T06:29:06.974Z,17.63
2018-11-05T06:31:35.827Z,17.53
2018-11-05T06:34:06.311Z,20.53
2018-11-05T06:36:35.183Z,21.90
2018-11-05T06:39:07.606Z,17.73
2018-11-05T06:41:36.576Z,17.80
2018-11-05T06:44:05.708Z,18.97
2018-11-05T06:46:34.739Z,15.00
2018-11-05T06:49:03.661Z,16.20
2018-11-05T06:51:32.828Z,22.27
2018-11-05T06:54:02.345Z,16.60
2018-11-05T06:56:31.216Z,21.47
2018-11-05T06:59:00.217Z,20.00
2018-11-05T07:01:29.830Z,18.07
2018-11-05T07:03:58.710Z,16.17
2018-11-05T07:06:27.818Z,17.57
2018-11-05T07:08:56.704Z,15.87
2018-11-05T07:11:25.616Z,19.00
2018-11-05T07:13:54.495Z,17.93
2018-11-05T07:16:23.329Z,23.43
2018-11-05T07:18:52.391Z,26.53
2018-11-05T07:21:21.145Z,19.33
2018-11-05T07:23:50.035Z,19.43
2018-11-05T07:26:18.854Z,16.40
2018-11-05T07:28:47.723Z,18.63
2018-11-05T07:31:16.577Z,18.60
2018-11-05T07:33:45.541Z,18.07
2018-11-05T07:36:14.274Z,20.73
2018-11-05T07:38:43.171Z,22.50
2018-11-05T07:41:12.046Z,18.57
2018-11-05T07:43:40.916Z,26.37
2018-11-05T07:46:09.846Z,18.63
2018-11-05T07:48:38.687Z,17.90
2018-11-05T07:51:08.151Z,21.10
2018-11-05T07:53:37.026Z,18.50
2018-11-05T07:56:05.980Z,17.97
2018-11-05T07:58:34.777Z,20.60
2018-11-05T08:01:03.713Z,16.27
2018-11-05T08:03:32.566Z,17.97
2018-11-05T08:06:01.565Z,18.20
2018-11-05T08:08:30.601Z,18.43
2018-11-05T08:10:59.171Z,23.00
2018-11-05T08:13:27.952Z,26.10
2018-11-05T08:15:56.838Z,91.20
2018-11-05T08:18:25.778Z,25.40
2018-11-05T08:20:54.679Z,21.90
2018-11-05T08:23:23.541Z,19.57
2018-11-05T08:25:52.424Z,21.37
2018-11-05T08:28:21.300Z,20.10
2018-11-05T08:30:50.208Z,22.07
2018-11-05T08:33:19.083Z,22.03
2018-11-05T08:35:48.223Z,21.40
2018-11-05T08:38:17.124Z,23.67
2018-11-05T08:40:45.972Z,29.50
2018-11-05T08:43:14.863Z,23.00
2018-11-05T08:45:43.723Z,21.93
2018-11-05T08:48:12.625Z,21.80
2018-11-05T08:50:41.715Z,23.63
2018-11-05T08:53:10.473Z,23.40
2018-11-05T08:55:39.322Z,21.80
2018-11-05T08:58:08.160Z,23.73
2018-11-05T09:00:42.397Z,21.00
2018-11-05T09:03:12.338Z,25.37
2018-11-05T09:05:41.262Z,26.80
2018-11-05T09:08:10.105Z,36.13
2018-11-05T09:10:39.206Z,27.87
2018-11-05T09:13:07.903Z,22.43
2018-11-05T09:15:36.748Z,25.17
2018-11-05T09:18:05.653Z,26.90
2018-11-05T09:20:34.507Z,23.37
2018-11-05T09:23:03.328Z,28.97
2018-11-05T09:25:32.218Z,24.83
2018-11-05T09:28:01.163Z,21.13
2018-11-05T09:30:30.082Z,26.17
2018-11-05T09:32:58.971Z,24.33
2018-11-05T09:35:27.928Z,22.67
2018-11-05T09:37:57.842Z,21.83
2018-11-05T09:40:26.733Z,24.93
2018-11-05T09:42:55.663Z,32.73
2018-11-05T09:45:25.935Z,23.00
2018-11-05T09:47:54.779Z,28.43
2018-11-05T09:50:23.717Z,28.07
2018-11-05T09:52:52.565Z,26.90
2018-11-05T09:55:21.443Z,28.63
2018-11-05T09:57:51.314Z,24.70
2018-11-05T10:00:22.432Z,26.37
2018-11-05T10:03:27.383Z,30.60
2018-11-05T10:05:56.068Z,21.23
2018-11-05T10:08:24.917Z,23.87
2018-11-05T10:10:53.818Z,25.60
2018-11-05T10:13:22.624Z,27.90
2018-11-05T10:15:51.500Z,27.77
2018-11-05T10:18:20.365Z,21.73
2018-11-05T10:20:49.307Z,21.03
2018-11-05T10:23:18.218Z,27.50
2018-11-05T10:25:47.092Z,23.73
2018-11-05T10:28:15.976Z,22.30
2018-11-05T10:30:44.929Z,21.97
2018-11-05T10:33:13.780Z,25.57
2018-11-05T10:35:48.082Z,23.50
2018-11-05T10:38:16.942Z,24.47
2018-11-05T10:40:45.842Z,28.40
2018-11-05T10:43:14.807Z,24.70
2018-11-05T10:45:43.698Z,31.17
2018-11-05T10:48:12.829Z,22.40
2018-11-05T10:50:41.757Z,25.00
2018-11-05T10:53:10.577Z,25.17
2018-11-05T10:55:39.442Z,22.17
2018-11-05T10:58:08.346Z,23.73
2018-11-05T11:00:42.494Z,22.67
2018-11-05T11:03:16.840Z,27.07
2018-11-05T11:05:45.726Z,25.73
2018-11-05T11:08:14.570Z,23.10
2018-11-05T11:10:43.467Z,22.57
2018-11-05T11:13:12.309Z,26.13
2018-11-05T11:15:41.171Z,24.93
2018-11-05T11:18:11.081Z,25.93
2018-11-05T11:20:40.007Z,25.27
2018-11-05T11:23:09.975Z,26.53
2018-11-05T11:25:38.877Z,30.70
2018-11-05T11:28:07.752Z,27.20
2018-11-05T11:30:36.653Z,25.23
2018-11-05T11:33:07.544Z,29.27
2018-11-05T11:35:36.460Z,22.50
2018-11-05T11:38:06.730Z,28.57
2018-11-05T11:40:35.564Z,23.80
2018-11-05T11:43:04.497Z,22.93
2018-11-05T11:45:33.360Z,30.00
2018-11-05T11:48:02.251Z,25.30
2018-11-05T11:50:31.136Z,22.30
2018-11-05T11:53:00.085Z,27.07
2018-11-05T11:55:28.933Z,33.17
2018-11-05T11:57:57.835Z,27.23
2018-11-05T12:00:26.652Z,28.27
2018-11-05T12:02:55.641Z,27.13
2018-11-05T12:05:24.649Z,36.67
2018-11-05T12:07:54.388Z,26.53
2018-11-05T12:10:24.224Z,40.93
2018-11-05T12:12:53.097Z,26.83
2018-11-05T12:15:22.729Z,27.23
2018-11-05T12:17:52.559Z,26.13
2018-11-05T12:20:22.692Z,25.03
2018-11-05T12:22:52.063Z,38.33
2018-11-05T12:25:20.979Z,24.50
2018-11-05T12:27:49.847Z,23.30
2018-11-05T12:30:21.071Z,24.97
2018-11-05T12:32:50.929Z,25.13
2018-11-05T12:35:21.024Z,25.90
2018-11-05T12:37:51.031Z,23.30
2018-11-05T12:40:20.949Z,28.93
2018-11-05T12:42:50.576Z,34.13
2018-11-05T12:45:19.468Z,24.60
2018-11-05T12:47:48.347Z,27.87
2018-11-05T12:50:19.608Z,25.73
2018-11-05T12:52:49.075Z,90.07
2018-11-05T12:55:17.586Z,60.33
2018-11-05T12:57:46.389Z,37.03
2018-11-05T13:00:16.901Z,41.47
2018-11-05T13:02:49.786Z,37.03
2018-11-05T13:05:19.211Z,113.07
2018-11-05T13:07:48.788Z,73.33
2018-11-05T13:10:17.784Z,59.17
2018-11-05T13:12:46.283Z,80.40
2018-11-05T13:15:14.798Z,40.50
2018-11-05T13:17:43.310Z,37.57
2018-11-05T13:20:26.866Z,36.23
2018-11-05T13:22:56.454Z,33.47
2018-11-05T13:25:25.004Z,34.03
2018-11-05T13:27:53.496Z,29.20
2018-11-05T13:30:21.993Z,29.57
2018-11-05T13:32:50.600Z,52.80
2018-11-05T13:35:20.427Z,34.53
2018-11-05T13:37:49.493Z,29.53
2018-11-05T13:40:18.941Z,27.63
2018-11-05T13:42:47.818Z,23.47
2018-11-05T13:45:17.849Z,27.57
2018-11-05T13:47:47.157Z,30.13
2018-11-05T13:50:15.529Z,29.67
2018-11-05T13:52:43.964Z,35.90
2018-11-05T13:55:13.611Z,32.73
2018-11-05T13:57:43.402Z,31.70
2018-11-05T14:00:13.435Z,28.00
2018-11-05T14:02:41.934Z,28.70
2018-11-05T14:05:11.127Z,32.80
2018-11-05T14:07:39.998Z,27.90
2018-11-05T14:10:13.002Z,29.13
2018-11-05T14:12:42.224Z,53.73
2018-11-05T14:15:10.728Z,52.13
2018-11-05T14:17:40.160Z,51.17
2018-11-05T14:20:09.490Z,30.67
2018-11-05T14:22:37.989Z,30.53
2018-11-05T14:25:07.235Z,36.77
2018-11-05T14:27:35.793Z,28.60
2018-11-05T14:30:05.217Z,38.07
2018-11-05T14:32:33.626Z,40.67
2018-11-05T14:35:02.114Z,36.27
2018-11-05T14:37:30.577Z,106.87
2018-11-05T14:39:59.073Z,77.73
2018-11-05T14:42:27.568Z,39.30
2018-11-05T14:44:56.111Z,32.53
2018-11-05T14:47:24.581Z,35.50
2018-11-05T14:49:53.200Z,36.30
2018-11-05T14:52:21.686Z,39.97
2018-11-05T14:54:50.204Z,41.30
2018-11-05T14:57:18.668Z,27.77
2018-11-05T14:59:47.231Z,29.13
2018-11-05T15:02:21.209Z,31.67
2018-11-05T15:04:49.676Z,33.77
2018-11-05T15:07:18.160Z,34.53
2018-11-05T15:09:46.668Z,35.90
2018-11-05T15:12:15.165Z,33.13
2018-11-05T15:14:43.639Z,31.63
2018-11-05T15:17:12.162Z,33.80
2018-11-05T15:19:41.067Z,29.50
2018-11-05T15:22:09.220Z,38.37
2018-11-05T15:24:37.710Z,30.00
2018-11-05T15:27:06.280Z,31.70
2018-11-05T15:29:34.744Z,27.93
2018-11-05T15:32:03.191Z,32.50
2018-11-05T15:34:31.663Z,32.90
2018-11-05T15:37:00.141Z,38.60
2018-11-05T15:39:28.611Z,32.30
2018-11-05T15:41:57.131Z,34.87
2018-11-05T15:44:25.608Z,30.60
2018-11-05T15:46:54.347Z,31.67
2018-11-05T15:49:23.210Z,34.27
2018-11-05T15:51:52.434Z,26.97
2018-11-05T15:54:21.070Z,33.00
2018-11-05T15:56:49.697Z,38.90
2018-11-05T15:59:18.532Z,32.70
2018-11-05T16:01:47.421Z,42.17
2018-11-05T16:04:16.292Z,39.13
2018-11-05T16:06:45.341Z,37.87
2018-11-05T16:09:14.412Z,36.07
2018-11-05T16:11:43.218Z,34.70
2018-11-05T16:14:12.090Z,34.23
2018-11-05T16:16:40.948Z,30.00
2018-11-05T16:19:09.844Z,35.00
2018-11-05T16:21:38.444Z,40.90
2018-11-05T16:24:06.904Z,29.87
2018-11-05T16:26:35.372Z,42.73
2018-11-05T16:29:03.849Z,31.27
2018-11-05T16:31:32.409Z,32.47
2018-11-05T16:34:01.100Z,37.53
2018-11-05T16:36:29.593Z,61.30
2018-11-05T16:38:58.036Z,45.77
2018-11-05T16:41:26.560Z,43.47
2018-11-05T16:43:55.020Z,61.70
2018-11-05T16:46:23.779Z,46.43
2018-11-05T16:48:52.618Z,34.97
2018-11-05T16:51:21.551Z,34.67
2018-11-05T16:53:50.500Z,30.03
2018-11-05T16:56:19.394Z,32.90
2018-11-05T16:58:48.459Z,34.27
2018-11-05T17:01:17.594Z,29.87
2018-11-05T17:03:46.193Z,28.67
2018-11-05T17:06:15.177Z,38.70
2018-11-05T17:08:44.017Z,34.33
2018-11-05T17:11:12.908Z,31.80
2018-11-05T17:13:42.173Z,45.43
2018-11-05T17:16:10.921Z,29.40
2018-11-05T17:18:39.787Z,43.33
2018-11-05T17:21:08.649Z,42.53
2018-11-05T17:23:37.545Z,34.20
2018-11-05T17:26:06.486Z,29.50
2018-11-05T17:28:35.249Z,46.47
2018-11-05T17:31:04.634Z,45.33
2018-11-05T17:33:33.495Z,37.43
2018-11-05T17:36:02.351Z,42.07
2018-11-05T17:38:31.181Z,44.00
2018-11-05T17:41:00.086Z,53.53
2018-11-05T17:43:28.968Z,37.07
2018-11-05T17:45:57.845Z,45.47
2018-11-05T17:48:26.708Z,36.13
2018-11-05T17:50:55.688Z,36.87
2018-11-05T17:53:24.510Z,32.40
2018-11-05T17:55:53.405Z,35.40
2018-11-05T17:58:22.249Z,30.27
2018-11-05T18:00:51.393Z,25.13
2018-11-05T18:03:20.642Z,27.67
2018-11-05T18:05:49.608Z,35.50
2018-11-05T18:08:18.536Z,39.30
2018-11-05T18:10:47.399Z,26.33
2018-11-05T18:13:16.261Z,25.73
2018-11-05T18:15:45.163Z,28.70
2018-11-05T18:18:13.940Z,29.83
2018-11-05T18:20:42.797Z,27.77
2018-11-05T18:23:11.736Z,32.33
2018-11-05T18:25:40.718Z,30.40
2018-11-05T18:28:09.625Z,32.73
2018-11-05T18:30:38.540Z,28.10
2018-11-05T18:33:07.405Z,31.97
2018-11-05T18:35:36.312Z,30.03
2018-11-05T18:38:05.430Z,27.40
2018-11-05T18:40:34.358Z,30.43
2018-11-05T18:43:03.292Z,30.87
2018-11-05T18:45:32.243Z,30.13
2018-11-05T18:48:01.045Z,28.73
2018-11-05T18:50:29.936Z,29.67
2018-11-05T18:52:58.855Z,31.60
2018-11-05T18:55:27.735Z,28.90
2018-11-05T18:57:56.596Z,29.27
2018-11-05T19:00:26.760Z,31.27
2018-11-05T19:02:56.809Z,30.93
2018-11-05T19:05:26.941Z,30.70
2018-11-05T19:07:55.806Z,30.63
2018-11-05T19:10:24.692Z,29.33
2018-11-05T19:12:54.068Z,31.17
2018-11-05T19:15:22.936Z,30.57
2018-11-05T19:17:51.978Z,33.50
2018-11-05T19:20:20.824Z,28.43
2018-11-05T19:22:49.843Z,32.50
2018-11-05T19:25:18.788Z,34.73
2018-11-05T19:27:47.657Z,33.23
2018-11-05T19:30:18.978Z,33.87
2018-11-05T19:32:47.812Z,33.80
2018-11-05T19:35:16.797Z,33.03
2018-11-05T19:37:45.769Z,30.83
2018-11-05T19:40:15.497Z,31.93
2018-11-05T19:42:45.463Z,34.73
2018-11-05T19:45:15.951Z,36.13
2018-11-05T19:47:45.164Z,36.27
2018-11-05T19:50:22.490Z,32.90
2018-11-05T19:52:52.336Z,38.57
2018-11-05T19:55:21.425Z,35.80
2018-11-05T19:57:52.398Z,31.40
2018-11-05T20:00:28.637Z,35.87
2018-11-05T20:02:58.737Z,32.60
2018-11-05T20:05:27.739Z,34.47
2018-11-05T20:07:57.372Z,29.53
2018-11-05T20:10:26.235Z,34.73
2018-11-05T20:12:55.210Z,35.50
2018-11-05T20:15:24.221Z,33.47
2018-11-05T20:17:53.938Z,34.13
2018-11-05T20:20:23.753Z,35.30
2018-11-05T20:22:52.707Z,34.73
2018-11-05T20:25:21.732Z,35.03
2018-11-05T20:27:50.636Z,41.83
2018-11-05T20:30:20.841Z,37.37
2018-11-05T20:32:50.931Z,31.27
2018-11-05T20:35:19.624Z,35.37
2018-11-05T20:37:48.679Z,32.17
2018-11-05T20:40:22.198Z,28.27
2018-11-05T20:42:52.067Z,36.60
2018-11-05T20:45:21.850Z,36.77
2018-11-05T20:47:50.739Z,34.73
2018-11-05T20:50:19.642Z,32.90
2018-11-05T20:52:48.534Z,38.97
2018-11-05T20:55:18.040Z,34.23
2018-11-05T20:57:47.049Z,32.23
2018-11-05T21:00:18.686Z,37.50
2018-11-05T21:02:47.612Z,35.23
2018-11-05T21:05:16.697Z,36.93
2018-11-05T21:07:45.547Z,38.50
2018-11-05T21:10:15.069Z,36.13
2018-11-05T21:12:44.402Z,40.77
2018-11-05T21:15:14.594Z,36.47
2018-11-05T21:17:44.241Z,33.17
2018-11-05T21:20:13.502Z,37.70
2018-11-05T21:22:42.615Z,37.40
2018-11-05T21:25:11.415Z,34.83
2018-11-05T21:27:41.059Z,34.27
2018-11-05T21:30:11.829Z,33.33
2018-11-05T21:32:40.733Z,35.47
2018-11-05T21:35:11.673Z,34.37
2018-11-05T21:37:40.860Z,33.07
2018-11-05T21:40:10.862Z,32.83
2018-11-05T21:42:39.761Z,33.17
2018-11-05T21:45:10.299Z,29.57
2018-11-05T21:47:39.681Z,28.57
2018-11-05T21:50:11.246Z,31.20
2018-11-05T21:52:41.292Z,36.93
2018-11-05T21:55:10.380Z,31.70
2018-11-05T21:57:40.985Z,31.03
2018-11-05T22:00:12.130Z,29.77
2018-11-05T22:02:46.228Z,27.77
2018-11-05T22:05:15.553Z,24.77
2018-11-05T22:07:44.652Z,25.93
2018-11-05T22:10:13.946Z,27.57
2018-11-05T22:12:43.547Z,24.20
2018-11-05T22:15:12.554Z,28.20
2018-11-05T22:17:41.659Z,24.00
2018-11-05T22:20:11.177Z,24.80
2018-11-05T22:22:40.319Z,22.67
2018-11-05T22:25:09.739Z,28.97
2018-11-05T22:27:38.792Z,34.73
2018-11-05T22:30:09.144Z,28.60
2018-11-05T22:32:38.717Z,25.70
2018-11-05T22:35:07.725Z,26.40
2018-11-05T22:37:36.971Z,29.80
2018-11-05T22:40:09.848Z,34.90
2018-11-05T22:42:38.720Z,26.53
2018-11-05T22:45:08.194Z,33.87
2018-11-05T22:47:37.490Z,28.47
2018-11-05T22:50:06.900Z,32.80
2018-11-05T22:52:35.772Z,26.53
2018-11-05T22:55:05.348Z,48.17
2018-11-05T22:57:34.361Z,48.60
2018-11-05T23:00:03.355Z,29.87
2018-11-05T23:02:32.253Z,27.67
2018-11-05T23:05:01.561Z,31.13
2018-11-05T23:07:30.412Z,30.57
2018-11-05T23:09:59.256Z,36.57
2018-11-05T23:12:27.953Z,45.93
2018-11-05T23:14:56.469Z,36.47
2018-11-05T23:17:24.938Z,29.60
2018-11-05T23:19:59.327Z,28.93
2018-11-05T23:22:28.100Z,32.37
2018-11-05T23:24:57.008Z,29.27
2018-11-05T23:27:25.937Z,29.83
2018-11-05T23:29:54.537Z,25.27
2018-11-05T23:32:23.084Z,30.07
2018-11-05T23:34:51.536Z,30.03
2018-11-05T23:37:20.027Z,31.57
2018-11-05T23:39:48.559Z,29.23
2018-11-05T23:42:17.125Z,29.30
2018-11-05T23:44:45.658Z,29.87
2018-11-05T23:47:14.147Z,32.23
2018-11-05T23:49:42.695Z,28.13
2018-11-05T23:52:11.309Z,24.87
2018-11-05T23:54:39.688Z,23.07
2018-11-05T23:57:08.195Z,25.40
2018-11-05T23:59:36.685Z,27.57
